sensor_id;sensor_type;location;lat;lon;timestamp;temperature;humidity
19892;DHT22;10108;50.142;8.724;2023-02-23T00:00:30;9.70;99.90
19892;DHT22;10108;50.142;8.724;2023-02-23T00:02:59;9.70;99.90
19892;DHT22;10108;50.142;8.724;2023-02-23T00:05:30;9.70;99.90
19892;DHT22;10108;50.142;8.724;2023-02-23T00:07:57;9.70;99.90
19892;DHT22;10108;50.142;8.724;2023-02-23T00:10:23;9.70;99.90
19892;DHT22;10108;50.142;8.724;2023-02-23T00:12:56;9.70;99.90
19892;DHT22;10108;50.142;8.724;2023-02-23T00:15:24;9.70;99.90
19892;DHT22;10108;50.142;8.724;2023-02-23T00:17:55;9.70;99.90
19892;DHT22;10108;50.142;8.724;2023-02-23T00:20:23;9.70;99.90
19892;DHT22;10108;50.142;8.724;2023-02-23T00:22:55;9.70;99.90
19892;DHT22;10108;50.142;8.724;2023-02-23T00:25:23;9.70;99.90
19892;DHT22;10108;50.142;8.724;2023-02-23T00:27:50;9.70;99.90
19892;DHT22;10108;50.142;8.724;2023-02-23T00:30:18;9.70;99.90
19892;DHT22;10108;50.142;8.724;2023-02-23T00:32:49;9.70;99.90
19892;DHT22;10108;50.142;8.724;2023-02-23T00:35:17;9.70;99.90
19892;DHT22;10108;50.142;8.724;2023-02-23T00:37:45;9.70;99.90
19892;DHT22;10108;50.142;8.724;2023-02-23T00:40:17;9.70;99.90
19892;DHT22;10108;50.142;8.724;2023-02-23T00:42:46;9.70;99.90
19892;DHT22;10108;50.142;8.724;2023-02-23T00:45:14;9.70;99.90
19892;DHT22;10108;50.142;8.724;2023-02-23T00:47:42;9.70;99.90
19892;DHT22;10108;50.142;8.724;2023-02-23T00:50:14;9.70;99.90
19892;DHT22;10108;50.142;8.724;2023-02-23T00:52:41;9.70;99.90
19892;DHT22;10108;50.142;8.724;2023-02-23T00:55:13;9.80;99.90
19892;DHT22;10108;50.142;8.724;2023-02-23T00:57:40;9.80;99.90
19892;DHT22;10108;50.142;8.724;2023-02-23T01:00:09;9.80;99.90
19892;DHT22;10108;50.142;8.724;2023-02-23T01:02:46;9.80;99.90
19892;DHT22;10108;50.142;8.724;2023-02-23T01:05:13;9.80;99.90
19892;DHT22;10108;50.142;8.724;2023-02-23T01:07:39;9.80;99.90
19892;DHT22;10108;50.142;8.724;2023-02-23T01:10:06;9.80;99.90
19892;DHT22;10108;50.142;8.724;2023-02-23T01:12:46;9.80;99.90
19892;DHT22;10108;50.142;8.724;2023-02-23T01:15:13;9.80;99.90
19892;DHT22;10108;50.142;8.724;2023-02-23T01:17:39;9.80;99.90
19892;DHT22;10108;50.142;8.724;2023-02-23T01:20:05;9.80;99.90
19892;DHT22;10108;50.142;8.724;2023-02-23T01:22:46;9.90;99.90
19892;DHT22;10108;50.142;8.724;2023-02-23T01:25:14;9.90;99.90
19892;DHT22;10108;50.142;8.724;2023-02-23T01:27:40;9.90;99.90
19892;DHT22;10108;50.142;8.724;2023-02-23T01:30:10;9.90;99.90
19892;DHT22;10108;50.142;8.724;2023-02-23T01:32:37;9.90;99.90
19892;DHT22;10108;50.142;8.724;2023-02-23T01:35:08;9.90;99.90
19892;DHT22;10108;50.142;8.724;2023-02-23T01:37:36;10.00;99.90
19892;DHT22;10108;50.142;8.724;2023-02-23T01:40:09;9.90;99.90
19892;DHT22;10108;50.142;8.724;2023-02-23T01:42:43;9.90;99.90
19892;DHT22;10108;50.142;8.724;2023-02-23T01:47:53;9.90;99.90
19892;DHT22;10108;50.142;8.724;2023-02-23T01:50:23;9.90;99.90
19892;DHT22;10108;50.142;8.724;2023-02-23T01:52:51;9.90;99.90
19892;DHT22;10108;50.142;8.724;2023-02-23T01:55:19;9.90;99.90
19892;DHT22;10108;50.142;8.724;2023-02-23T01:57:54;9.80;99.90
19892;DHT22;10108;50.142;8.724;2023-02-23T02:00:22;9.80;99.90
19892;DHT22;10108;50.142;8.724;2023-02-23T02:02:51;9.70;99.90
19892;DHT22;10108;50.142;8.724;2023-02-23T02:05:19;9.60;99.90
19892;DHT22;10108;50.142;8.724;2023-02-23T02:07:50;9.60;99.90
19892;DHT22;10108;50.142;8.724;2023-02-23T02:10:25;9.50;99.90
19892;DHT22;10108;50.142;8.724;2023-02-23T02:13:14;9.50;99.90
19892;DHT22;10108;50.142;8.724;2023-02-23T02:16:11;9.50;99.90
19892;DHT22;10108;50.142;8.724;2023-02-23T02:19:05;9.40;99.90
19892;DHT22;10108;50.142;8.724;2023-02-23T02:25:19;9.40;99.90
19892;DHT22;10108;50.142;8.724;2023-02-23T02:28:22;9.40;99.90
19892;DHT22;10108;50.142;8.724;2023-02-23T02:42:32;9.30;99.90
19892;DHT22;10108;50.142;8.724;2023-02-23T02:45:33;9.30;99.90
19892;DHT22;10108;50.142;8.724;2023-02-23T02:50:55;9.20;99.90
19892;DHT22;10108;50.142;8.724;2023-02-23T02:53:34;9.10;99.90
19892;DHT22;10108;50.142;8.724;2023-02-23T02:56:02;9.20;99.90
19892;DHT22;10108;50.142;8.724;2023-02-23T02:58:35;9.20;99.90
19892;DHT22;10108;50.142;8.724;2023-02-23T03:01:11;9.20;99.90
19892;DHT22;10108;50.142;8.724;2023-02-23T03:03:58;9.20;99.90
19892;DHT22;10108;50.142;8.724;2023-02-23T03:06:47;9.20;99.90
19892;DHT22;10108;50.142;8.724;2023-02-23T03:09:51;9.20;99.90
19892;DHT22;10108;50.142;8.724;2023-02-23T03:12:44;9.20;99.90
19892;DHT22;10108;50.142;8.724;2023-02-23T03:15:58;9.20;99.90
19892;DHT22;10108;50.142;8.724;2023-02-23T03:19:20;9.20;99.90
19892;DHT22;10108;50.142;8.724;2023-02-23T03:22:25;9.20;99.90
19892;DHT22;10108;50.142;8.724;2023-02-23T03:25:31;9.10;99.90
19892;DHT22;10108;50.142;8.724;2023-02-23T03:28:25;9.00;99.90
19892;DHT22;10108;50.142;8.724;2023-02-23T03:31:30;9.00;99.90
19892;DHT22;10108;50.142;8.724;2023-02-23T03:34:27;8.90;99.90
19892;DHT22;10108;50.142;8.724;2023-02-23T03:37:21;8.80;99.90
19892;DHT22;10108;50.142;8.724;2023-02-23T03:40:12;8.80;99.90
19892;DHT22;10108;50.142;8.724;2023-02-23T03:43:01;8.70;99.90
19892;DHT22;10108;50.142;8.724;2023-02-23T03:45:47;8.70;99.90
19892;DHT22;10108;50.142;8.724;2023-02-23T03:48:35;8.70;99.90
19892;DHT22;10108;50.142;8.724;2023-02-23T03:51:41;8.60;99.90
19892;DHT22;10108;50.142;8.724;2023-02-23T03:54:58;8.50;99.90
19892;DHT22;10108;50.142;8.724;2023-02-23T03:57:46;8.40;99.90
19892;DHT22;10108;50.142;8.724;2023-02-23T04:00:38;8.40;99.90
19892;DHT22;10108;50.142;8.724;2023-02-23T04:03:25;8.40;99.90
19892;DHT22;10108;50.142;8.724;2023-02-23T04:06:13;8.50;99.90
19892;DHT22;10108;50.142;8.724;2023-02-23T04:09:02;8.50;99.90
19892;DHT22;10108;50.142;8.724;2023-02-23T04:12:16;8.50;99.90
19892;DHT22;10108;50.142;8.724;2023-02-23T04:15:22;8.60;99.90
19892;DHT22;10108;50.142;8.724;2023-02-23T04:17:52;8.70;99.90
19892;DHT22;10108;50.142;8.724;2023-02-23T04:20:20;8.70;99.90
19892;DHT22;10108;50.142;8.724;2023-02-23T04:22:46;8.80;99.90
19892;DHT22;10108;50.142;8.724;2023-02-23T04:25:14;8.80;99.90
19892;DHT22;10108;50.142;8.724;2023-02-23T04:27:40;8.80;99.90
19892;DHT22;10108;50.142;8.724;2023-02-23T04:30:07;8.80;99.90
19892;DHT22;10108;50.142;8.724;2023-02-23T04:32:36;8.80;99.90
19892;DHT22;10108;50.142;8.724;2023-02-23T04:35:03;8.80;99.90
19892;DHT22;10108;50.142;8.724;2023-02-23T04:37:29;8.80;99.90
19892;DHT22;10108;50.142;8.724;2023-02-23T04:39:55;8.90;99.90
19892;DHT22;10108;50.142;8.724;2023-02-23T04:42:21;8.90;99.90
19892;DHT22;10108;50.142;8.724;2023-02-23T04:44:48;8.90;99.90
19892;DHT22;10108;50.142;8.724;2023-02-23T04:47:15;9.00;99.90
19892;DHT22;10108;50.142;8.724;2023-02-23T04:49:42;9.00;99.90
19892;DHT22;10108;50.142;8.724;2023-02-23T04:52:08;9.00;99.90
19892;DHT22;10108;50.142;8.724;2023-02-23T04:54:38;9.10;99.90
19892;DHT22;10108;50.142;8.724;2023-02-23T04:57:05;9.10;99.90
19892;DHT22;10108;50.142;8.724;2023-02-23T04:59:32;9.10;99.90
19892;DHT22;10108;50.142;8.724;2023-02-23T05:01:58;9.20;99.90
19892;DHT22;10108;50.142;8.724;2023-02-23T05:04:24;9.20;99.90
19892;DHT22;10108;50.142;8.724;2023-02-23T05:06:50;9.20;99.90
19892;DHT22;10108;50.142;8.724;2023-02-23T05:09:17;9.30;99.90
19892;DHT22;10108;50.142;8.724;2023-02-23T05:11:43;9.30;99.90
19892;DHT22;10108;50.142;8.724;2023-02-23T05:14:09;9.30;99.90
19892;DHT22;10108;50.142;8.724;2023-02-23T05:16:38;9.30;99.90
19892;DHT22;10108;50.142;8.724;2023-02-23T05:19:04;9.40;99.90
19892;DHT22;10108;50.142;8.724;2023-02-23T05:21:31;9.40;99.90
19892;DHT22;10108;50.142;8.724;2023-02-23T05:23:57;9.50;99.90
19892;DHT22;10108;50.142;8.724;2023-02-23T05:26:23;9.50;99.90
19892;DHT22;10108;50.142;8.724;2023-02-23T05:28:49;9.50;99.90
19892;DHT22;10108;50.142;8.724;2023-02-23T05:31:15;9.50;99.90
19892;DHT22;10108;50.142;8.724;2023-02-23T05:33:42;9.50;99.90
19892;DHT22;10108;50.142;8.724;2023-02-23T05:36:13;9.50;99.90
19892;DHT22;10108;50.142;8.724;2023-02-23T05:38:41;9.50;99.90
19892;DHT22;10108;50.142;8.724;2023-02-23T05:41:09;9.50;99.90
19892;DHT22;10108;50.142;8.724;2023-02-23T05:43:35;9.50;99.90
19892;DHT22;10108;50.142;8.724;2023-02-23T05:46:06;9.50;99.90
19892;DHT22;10108;50.142;8.724;2023-02-23T05:48:32;9.50;99.90
19892;DHT22;10108;50.142;8.724;2023-02-23T05:51:08;9.50;99.90
19892;DHT22;10108;50.142;8.724;2023-02-23T05:53:34;9.40;99.90
19892;DHT22;10108;50.142;8.724;2023-02-23T05:56:01;9.40;99.90
19892;DHT22;10108;50.142;8.724;2023-02-23T05:58:28;9.40;99.90
19892;DHT22;10108;50.142;8.724;2023-02-23T06:00:55;9.40;99.90
19892;DHT22;10108;50.142;8.724;2023-02-23T06:03:21;9.30;99.90
19892;DHT22;10108;50.142;8.724;2023-02-23T06:05:55;9.30;99.90
19892;DHT22;10108;50.142;8.724;2023-02-23T06:08:23;9.30;99.90
19892;DHT22;10108;50.142;8.724;2023-02-23T06:10:50;9.20;99.90
19892;DHT22;10108;50.142;8.724;2023-02-23T06:13:17;9.30;99.90
19892;DHT22;10108;50.142;8.724;2023-02-23T06:15:43;9.30;99.90
19892;DHT22;10108;50.142;8.724;2023-02-23T06:18:09;9.40;99.90
19892;DHT22;10108;50.142;8.724;2023-02-23T06:20:36;9.40;99.90
19892;DHT22;10108;50.142;8.724;2023-02-23T06:23:03;9.40;99.90
19892;DHT22;10108;50.142;8.724;2023-02-23T06:25:30;9.40;99.90
19892;DHT22;10108;50.142;8.724;2023-02-23T06:27:56;9.50;99.90
19892;DHT22;10108;50.142;8.724;2023-02-23T06:30:22;9.50;99.90
19892;DHT22;10108;50.142;8.724;2023-02-23T06:32:48;9.50;99.90
19892;DHT22;10108;50.142;8.724;2023-02-23T06:35:18;9.50;99.90
19892;DHT22;10108;50.142;8.724;2023-02-23T06:37:45;9.50;99.90
19892;DHT22;10108;50.142;8.724;2023-02-23T06:40:11;9.50;99.90
19892;DHT22;10108;50.142;8.724;2023-02-23T06:42:37;9.50;99.90
19892;DHT22;10108;50.142;8.724;2023-02-23T06:45:04;9.50;99.90
19892;DHT22;10108;50.142;8.724;2023-02-23T06:47:30;9.50;99.90
19892;DHT22;10108;50.142;8.724;2023-02-23T06:49:56;9.50;99.90
19892;DHT22;10108;50.142;8.724;2023-02-23T06:52:33;9.50;99.90
19892;DHT22;10108;50.142;8.724;2023-02-23T06:55:17;9.50;99.90
19892;DHT22;10108;50.142;8.724;2023-02-23T06:57:43;9.50;99.90
19892;DHT22;10108;50.142;8.724;2023-02-23T07:00:10;9.50;99.90
19892;DHT22;10108;50.142;8.724;2023-02-23T07:02:40;9.40;99.90
19892;DHT22;10108;50.142;8.724;2023-02-23T07:05:07;9.40;99.90
19892;DHT22;10108;50.142;8.724;2023-02-23T07:07:33;9.30;99.90
19892;DHT22;10108;50.142;8.724;2023-02-23T07:09:59;9.30;99.90
19892;DHT22;10108;50.142;8.724;2023-02-23T07:12:25;9.30;99.90
19892;DHT22;10108;50.142;8.724;2023-02-23T07:14:51;9.30;99.90
19892;DHT22;10108;50.142;8.724;2023-02-23T07:17:18;9.30;99.90
19892;DHT22;10108;50.142;8.724;2023-02-23T07:19:44;9.40;99.90
19892;DHT22;10108;50.142;8.724;2023-02-23T07:22:10;9.40;99.90
19892;DHT22;10108;50.142;8.724;2023-02-23T07:24:36;9.40;99.90
19892;DHT22;10108;50.142;8.724;2023-02-23T07:27:05;9.40;99.90
19892;DHT22;10108;50.142;8.724;2023-02-23T07:29:31;9.40;99.90
19892;DHT22;10108;50.142;8.724;2023-02-23T07:31:58;9.50;99.90
19892;DHT22;10108;50.142;8.724;2023-02-23T07:34:24;9.50;99.90
19892;DHT22;10108;50.142;8.724;2023-02-23T07:36:50;9.60;99.90
19892;DHT22;10108;50.142;8.724;2023-02-23T07:39:17;9.60;99.90
19892;DHT22;10108;50.142;8.724;2023-02-23T07:41:43;9.60;99.90
19892;DHT22;10108;50.142;8.724;2023-02-23T07:44:17;9.70;99.90
19892;DHT22;10108;50.142;8.724;2023-02-23T07:46:44;9.70;99.90
19892;DHT22;10108;50.142;8.724;2023-02-23T07:49:11;9.70;99.90
19892;DHT22;10108;50.142;8.724;2023-02-23T07:51:38;9.80;99.90
19892;DHT22;10108;50.142;8.724;2023-02-23T07:54:04;9.80;99.90
19892;DHT22;10108;50.142;8.724;2023-02-23T07:56:31;9.80;99.90
19892;DHT22;10108;50.142;8.724;2023-02-23T07:58:58;9.80;99.90
19892;DHT22;10108;50.142;8.724;2023-02-23T08:01:24;9.80;99.90
19892;DHT22;10108;50.142;8.724;2023-02-23T08:03:50;9.80;99.90
19892;DHT22;10108;50.142;8.724;2023-02-23T08:06:17;9.90;99.90
19892;DHT22;10108;50.142;8.724;2023-02-23T08:13:37;9.90;99.90
19892;DHT22;10108;50.142;8.724;2023-02-23T08:16:04;10.00;99.90
19892;DHT22;10108;50.142;8.724;2023-02-23T08:18:30;10.00;99.90
19892;DHT22;10108;50.142;8.724;2023-02-23T08:21:00;10.00;99.90
19892;DHT22;10108;50.142;8.724;2023-02-23T08:23:29;10.00;99.90
19892;DHT22;10108;50.142;8.724;2023-02-23T08:25:56;10.00;99.90
19892;DHT22;10108;50.142;8.724;2023-02-23T08:28:22;10.00;99.90
19892;DHT22;10108;50.142;8.724;2023-02-23T08:30:50;10.00;99.90
19892;DHT22;10108;50.142;8.724;2023-02-23T08:33:16;10.00;99.90
19892;DHT22;10108;50.142;8.724;2023-02-23T08:35:42;10.00;99.90
19892;DHT22;10108;50.142;8.724;2023-02-23T08:38:09;10.10;99.90
19892;DHT22;10108;50.142;8.724;2023-02-23T08:40:35;10.10;99.90
19892;DHT22;10108;50.142;8.724;2023-02-23T08:43:01;10.10;99.90
19892;DHT22;10108;50.142;8.724;2023-02-23T08:45:27;10.10;99.90
19892;DHT22;10108;50.142;8.724;2023-02-23T08:47:56;10.20;99.90
19892;DHT22;10108;50.142;8.724;2023-02-23T09:00:10;10.20;99.90
19892;DHT22;10108;50.142;8.724;2023-02-23T09:02:43;10.30;99.90
19892;DHT22;10108;50.142;8.724;2023-02-23T09:05:09;10.30;99.90
19892;DHT22;10108;50.142;8.724;2023-02-23T09:07:37;10.30;99.90
19892;DHT22;10108;50.142;8.724;2023-02-23T09:10:03;10.30;99.90
19892;DHT22;10108;50.142;8.724;2023-02-23T09:12:29;10.30;99.90
19892;DHT22;10108;50.142;8.724;2023-02-23T09:14:56;10.40;99.90
19892;DHT22;10108;50.142;8.724;2023-02-23T09:17:22;10.40;99.90
19892;DHT22;10108;50.142;8.724;2023-02-23T09:19:49;10.40;99.90
19892;DHT22;10108;50.142;8.724;2023-02-23T09:22:15;10.50;99.90
19892;DHT22;10108;50.142;8.724;2023-02-23T09:24:43;10.50;99.90
19892;DHT22;10108;50.142;8.724;2023-02-23T09:27:09;10.50;99.90
19892;DHT22;10108;50.142;8.724;2023-02-23T09:29:38;10.50;99.90
19892;DHT22;10108;50.142;8.724;2023-02-23T09:32:07;10.50;99.90
19892;DHT22;10108;50.142;8.724;2023-02-23T09:34:34;10.60;99.90
19892;DHT22;10108;50.142;8.724;2023-02-23T09:37:01;10.60;99.90
19892;DHT22;10108;50.142;8.724;2023-02-23T09:39:28;10.60;99.90
19892;DHT22;10108;50.142;8.724;2023-02-23T09:44:41;10.50;99.90
19892;DHT22;10108;50.142;8.724;2023-02-23T09:47:33;10.50;99.90
19892;DHT22;10108;50.142;8.724;2023-02-23T09:50:13;10.50;99.90
19892;DHT22;10108;50.142;8.724;2023-02-23T09:52:44;10.50;99.90
19892;DHT22;10108;50.142;8.724;2023-02-23T09:55:13;10.50;99.90
19892;DHT22;10108;50.142;8.724;2023-02-23T09:57:43;10.60;99.90
19892;DHT22;10108;50.142;8.724;2023-02-23T10:00:22;10.60;99.90
19892;DHT22;10108;50.142;8.724;2023-02-23T10:25:57;11.00;99.90
19892;DHT22;10108;50.142;8.724;2023-02-23T10:28:32;11.00;99.90
19892;DHT22;10108;50.142;8.724;2023-02-23T10:30:59;11.10;99.90
19892;DHT22;10108;50.142;8.724;2023-02-23T10:33:40;11.10;99.90
19892;DHT22;10108;50.142;8.724;2023-02-23T10:36:15;11.20;99.90
19892;DHT22;10108;50.142;8.724;2023-02-23T10:38:41;11.20;99.90
19892;DHT22;10108;50.142;8.724;2023-02-23T11:28:25;11.50;99.90
19892;DHT22;10108;50.142;8.724;2023-02-23T11:33:38;11.50;99.90
19892;DHT22;10108;50.142;8.724;2023-02-23T12:01:39;11.70;99.90
19892;DHT22;10108;50.142;8.724;2023-02-23T12:04:30;11.80;99.90
19892;DHT22;10108;50.142;8.724;2023-02-23T12:07:22;11.80;99.90
19892;DHT22;10108;50.142;8.724;2023-02-23T12:10:01;11.80;99.90
19892;DHT22;10108;50.142;8.724;2023-02-23T12:12:29;11.90;99.90
19892;DHT22;10108;50.142;8.724;2023-02-23T12:15:05;11.80;99.90
19892;DHT22;10108;50.142;8.724;2023-02-23T12:17:40;11.90;99.90
19892;DHT22;10108;50.142;8.724;2023-02-23T12:20:17;11.80;99.90
19892;DHT22;10108;50.142;8.724;2023-02-23T12:22:50;11.80;99.90
19892;DHT22;10108;50.142;8.724;2023-02-23T12:25:44;11.80;99.90
19892;DHT22;10108;50.142;8.724;2023-02-23T12:33:48;11.80;99.90
19892;DHT22;10108;50.142;8.724;2023-02-23T12:39:05;11.80;99.90
19892;DHT22;10108;50.142;8.724;2023-02-23T12:41:44;11.80;99.90
19892;DHT22;10108;50.142;8.724;2023-02-23T12:44:36;11.70;99.90
19892;DHT22;10108;50.142;8.724;2023-02-23T12:50:02;11.70;99.90
19892;DHT22;10108;50.142;8.724;2023-02-23T12:52:36;11.70;99.90
19892;DHT22;10108;50.142;8.724;2023-02-23T12:55:09;11.70;99.90
19892;DHT22;10108;50.142;8.724;2023-02-23T12:57:53;11.70;99.90
19892;DHT22;10108;50.142;8.724;2023-02-23T13:00:36;11.80;99.90
19892;DHT22;10108;50.142;8.724;2023-02-23T13:05:54;11.70;99.90
19892;DHT22;10108;50.142;8.724;2023-02-23T13:08:36;11.70;99.90
19892;DHT22;10108;50.142;8.724;2023-02-23T13:16:42;11.60;99.90
19892;DHT22;10108;50.142;8.724;2023-02-23T13:19:17;11.60;99.90
19892;DHT22;10108;50.142;8.724;2023-02-23T13:24:23;11.70;99.90
19892;DHT22;10108;50.142;8.724;2023-02-23T13:27:24;11.60;99.90
19892;DHT22;10108;50.142;8.724;2023-02-23T13:29:52;11.70;99.90
19892;DHT22;10108;50.142;8.724;2023-02-23T13:32:31;11.60;99.90
19892;DHT22;10108;50.142;8.724;2023-02-23T13:35:00;11.60;99.90
19892;DHT22;10108;50.142;8.724;2023-02-23T13:43:32;11.70;99.90
19892;DHT22;10108;50.142;8.724;2023-02-23T13:51:42;11.60;99.90
19892;DHT22;10108;50.142;8.724;2023-02-23T13:56:47;11.60;99.90
19892;DHT22;10108;50.142;8.724;2023-02-23T13:59:17;11.60;99.90
19892;DHT22;10108;50.142;8.724;2023-02-23T14:01:47;11.60;99.90
19892;DHT22;10108;50.142;8.724;2023-02-23T14:04:35;11.60;99.90
19892;DHT22;10108;50.142;8.724;2023-02-23T14:07:22;11.60;99.90
19892;DHT22;10108;50.142;8.724;2023-02-23T14:09:55;11.70;99.90
19892;DHT22;10108;50.142;8.724;2023-02-23T14:20:41;11.80;99.90
19892;DHT22;10108;50.142;8.724;2023-02-23T14:31:04;11.90;99.90
19892;DHT22;10108;50.142;8.724;2023-02-23T14:41:29;11.90;99.90
19892;DHT22;10108;50.142;8.724;2023-02-23T14:44:10;11.90;99.90
19892;DHT22;10108;50.142;8.724;2023-02-23T14:46:37;11.90;99.90
19892;DHT22;10108;50.142;8.724;2023-02-23T14:49:18;11.80;99.90
19892;DHT22;10108;50.142;8.724;2023-02-23T14:51:47;11.90;99.90
19892;DHT22;10108;50.142;8.724;2023-02-23T14:54:32;11.90;99.90
19892;DHT22;10108;50.142;8.724;2023-02-23T14:57:02;11.90;99.90
19892;DHT22;10108;50.142;8.724;2023-02-23T14:59:37;11.90;99.90
19892;DHT22;10108;50.142;8.724;2023-02-23T15:02:16;11.90;99.90
19892;DHT22;10108;50.142;8.724;2023-02-23T15:04:42;11.90;99.90
19892;DHT22;10108;50.142;8.724;2023-02-23T15:07:30;11.90;99.90
19892;DHT22;10108;50.142;8.724;2023-02-23T15:09:58;11.90;99.90
19892;DHT22;10108;50.142;8.724;2023-02-23T15:12:27;11.80;99.90
19892;DHT22;10108;50.142;8.724;2023-02-23T15:14:59;11.80;99.90
19892;DHT22;10108;50.142;8.724;2023-02-23T15:17:28;11.70;99.90
19892;DHT22;10108;50.142;8.724;2023-02-23T15:19:59;11.80;99.90
19892;DHT22;10108;50.142;8.724;2023-02-23T15:22:36;11.80;99.90
19892;DHT22;10108;50.142;8.724;2023-02-23T15:25:21;11.80;99.90
19892;DHT22;10108;50.142;8.724;2023-02-23T15:27:49;11.80;99.90
19892;DHT22;10108;50.142;8.724;2023-02-23T15:30:28;11.80;99.90
19892;DHT22;10108;50.142;8.724;2023-02-23T15:33:12;11.80;99.90
19892;DHT22;10108;50.142;8.724;2023-02-23T15:38:41;11.80;99.90
19892;DHT22;10108;50.142;8.724;2023-02-23T15:41:19;11.80;99.90
19892;DHT22;10108;50.142;8.724;2023-02-23T15:43:50;11.80;99.90
19892;DHT22;10108;50.142;8.724;2023-02-23T15:46:23;11.80;99.90
19892;DHT22;10108;50.142;8.724;2023-02-23T15:48:53;11.70;99.90
19892;DHT22;10108;50.142;8.724;2023-02-23T15:51:31;11.70;99.90
19892;DHT22;10108;50.142;8.724;2023-02-23T15:53:59;11.70;99.90
19892;DHT22;10108;50.142;8.724;2023-02-23T15:56:28;11.70;99.90
19892;DHT22;10108;50.142;8.724;2023-02-23T15:58:57;11.70;99.90
19892;DHT22;10108;50.142;8.724;2023-02-23T16:01:26;11.60;99.90
19892;DHT22;10108;50.142;8.724;2023-02-23T16:04:16;11.60;99.90
19892;DHT22;10108;50.142;8.724;2023-02-23T16:07:04;11.60;99.90
19892;DHT22;10108;50.142;8.724;2023-02-23T16:09:32;11.50;99.90
19892;DHT22;10108;50.142;8.724;2023-02-23T16:12:10;11.50;99.90
19892;DHT22;10108;50.142;8.724;2023-02-23T16:14:55;11.50;99.90
19892;DHT22;10108;50.142;8.724;2023-02-23T16:20:02;11.50;99.90
19892;DHT22;10108;50.142;8.724;2023-02-23T16:22:33;11.50;99.90
19892;DHT22;10108;50.142;8.724;2023-02-23T16:25:02;11.40;99.90
19892;DHT22;10108;50.142;8.724;2023-02-23T16:27:30;11.40;99.90
19892;DHT22;10108;50.142;8.724;2023-02-23T16:29:58;11.40;99.90
19892;DHT22;10108;50.142;8.724;2023-02-23T16:32:33;11.40;99.90
19892;DHT22;10108;50.142;8.724;2023-02-23T16:35:07;11.30;99.90
19892;DHT22;10108;50.142;8.724;2023-02-23T16:37:56;11.30;99.90
19892;DHT22;10108;50.142;8.724;2023-02-23T16:40:23;11.30;99.90
19892;DHT22;10108;50.142;8.724;2023-02-23T16:42:49;11.30;99.90
19892;DHT22;10108;50.142;8.724;2023-02-23T16:45:16;11.30;99.90
19892;DHT22;10108;50.142;8.724;2023-02-23T16:47:44;11.30;99.90
19892;DHT22;10108;50.142;8.724;2023-02-23T16:50:19;11.30;99.90
19892;DHT22;10108;50.142;8.724;2023-02-23T16:52:46;11.20;99.90
19892;DHT22;10108;50.142;8.724;2023-02-23T16:55:18;11.20;99.90
19892;DHT22;10108;50.142;8.724;2023-02-23T16:57:58;11.20;99.90
19892;DHT22;10108;50.142;8.724;2023-02-23T17:00:28;11.20;99.90
19892;DHT22;10108;50.142;8.724;2023-02-23T17:02:55;11.20;99.90
19892;DHT22;10108;50.142;8.724;2023-02-23T17:05:23;11.20;99.90
19892;DHT22;10108;50.142;8.724;2023-02-23T17:07:50;11.20;99.90
19892;DHT22;10108;50.142;8.724;2023-02-23T17:10:18;11.20;99.90
19892;DHT22;10108;50.142;8.724;2023-02-23T17:12:51;11.20;99.90
19892;DHT22;10108;50.142;8.724;2023-02-23T17:15:18;11.10;99.90
19892;DHT22;10108;50.142;8.724;2023-02-23T17:17:44;11.10;99.90
19892;DHT22;10108;50.142;8.724;2023-02-23T17:20:10;11.10;99.90
19892;DHT22;10108;50.142;8.724;2023-02-23T17:22:48;11.10;99.90
19892;DHT22;10108;50.142;8.724;2023-02-23T17:25:15;11.10;99.90
19892;DHT22;10108;50.142;8.724;2023-02-23T17:27:41;11.10;99.90
19892;DHT22;10108;50.142;8.724;2023-02-23T17:30:08;11.10;99.90
